Terminal Aerodrome Forecast
Issued by NWS

Home | Current Version | Previous Version | Text Only | Print | Product List | Glossary On
Versions: 1 2 3 4 5 6 7 8 9 10 11 12 13 14 15 16 17 18 19 20 21 22 23 24 25 26 27 28 29 30
000
FTUS46 KEKA 280526
TAFCEC
TAF
KCEC 280526Z 2806/2906 18009KT 1SM BR OVC005
     FM280900 VRB03KT 1SM BR OVC003
     FM281100 00000KT 1/4SM FG OVC001
     FM281700 30005KT 3SM BR OVC004
     FM282100 30008KT P6SM OVC008=

USA.gov is the U.S. government's official web portal to all federal, state and local government web resources and services.